createdAt,value
2023-03-15T00:00:10.677Z,98794.29
2023-03-15T00:02:39.366Z,98793.55
2023-03-15T00:05:15.690Z,98785.30
2023-03-15T00:07:45.215Z,98783.98
2023-03-15T00:10:13.219Z,98783.73
2023-03-15T00:12:45.941Z,98785.89
2023-03-15T00:15:14.512Z,98786.80
2023-03-15T00:17:45.093Z,98780.65
2023-03-15T00:20:15.141Z,98781.30
2023-03-15T00:22:44.694Z,98774.63
2023-03-15T00:25:14.536Z,98775.50
2023-03-15T00:27:42.667Z,98770.04
2023-03-15T00:30:11.005Z,98774.10
2023-03-15T00:32:39.942Z,98772.59
2023-03-15T00:35:09.976Z,98775.41
2023-03-15T00:37:41.265Z,98773.69
2023-03-15T00:40:10.078Z,98779.05
2023-03-15T00:42:39.209Z,98777.42
2023-03-15T00:45:08.458Z,98775.34
2023-03-15T00:47:36.742Z,98774.49
2023-03-15T00:50:05.938Z,98773.88
2023-03-15T00:52:36.117Z,98772.20
2023-03-15T00:55:04.423Z,98777.61
2023-03-15T00:57:33.880Z,98777.65
2023-03-15T01:00:08.890Z,98781.54
2023-03-15T01:02:37.902Z,98779.69
2023-03-15T01:05:06.573Z,98774.23
2023-03-15T01:07:34.769Z,98778.80
2023-03-15T01:10:07.929Z,98775.41
2023-03-15T01:12:36.095Z,98770.30
2023-03-15T01:15:04.707Z,98778.01
2023-03-15T01:17:33.252Z,98782.05
2023-03-15T01:20:05.359Z,98784.54
2023-03-15T01:22:33.698Z,98779.08
2023-03-15T01:25:01.989Z,98779.18
2023-03-15T01:27:30.293Z,98778.73
2023-03-15T01:29:58.442Z,98780.83
2023-03-15T01:32:27.470Z,98781.21
2023-03-15T01:34:55.570Z,98781.98
2023-03-15T01:37:26.817Z,98779.11
2023-03-15T01:39:55.099Z,98779.55
2023-03-15T01:42:23.067Z,98778.33
2023-03-15T01:44:54.402Z,98783.02
2023-03-15T01:47:26.072Z,98774.78
2023-03-15T01:49:56.970Z,98771.80
2023-03-15T01:52:26.111Z,98770.83
2023-03-15T01:55:08.669Z,98769.29
2023-03-15T01:57:39.234Z,98771.60
2023-03-15T02:00:13.188Z,98778.91
2023-03-15T02:02:47.854Z,98776.59
2023-03-15T02:05:27.636Z,98779.04
2023-03-15T02:07:56.169Z,98783.55
2023-03-15T02:10:40.072Z,98785.35
2023-03-15T02:13:24.347Z,98782.63
2023-03-15T02:15:53.769Z,98779.38
2023-03-15T02:18:29.220Z,98774.25
2023-03-15T02:21:04.223Z,98773.09
2023-03-15T02:23:34.578Z,98771.92
2023-03-15T02:26:08.850Z,98770.99
2023-03-15T02:28:37.516Z,98771.17
2023-03-15T02:31:06.124Z,98767.74
2023-03-15T02:33:36.790Z,98769.80
2023-03-15T02:36:10.224Z,98768.99
2023-03-15T02:38:38.767Z,98773.50
2023-03-15T02:41:06.812Z,98768.16
2023-03-15T02:43:35.230Z,98769.58
2023-03-15T02:46:03.429Z,98767.19
2023-03-15T02:48:31.970Z,98771.05
2023-03-15T02:50:59.982Z,98765.55
2023-03-15T02:53:31.808Z,98765.41
2023-03-15T02:56:03.676Z,98760.30
2023-03-15T02:58:32.518Z,98763.77
2023-03-15T03:01:02.255Z,98758.97
2023-03-15T03:03:31.942Z,98755.16
2023-03-15T03:06:01.840Z,98755.72
2023-03-15T03:08:30.213Z,98750.77
2023-03-15T03:10:59.438Z,98753.55
2023-03-15T03:13:28.692Z,98749.84
2023-03-15T03:15:59.821Z,98750.04
2023-03-15T03:18:30.845Z,98755.29
2023-03-15T03:20:59.392Z,98756.70
2023-03-15T03:23:28.840Z,98757.94
2023-03-15T03:25:58.759Z,98755.38
2023-03-15T03:28:30.302Z,98749.85
2023-03-15T03:30:59.893Z,98749.71
2023-03-15T03:33:30.353Z,98753.89
2023-03-15T03:36:04.534Z,98753.39
2023-03-15T03:38:32.927Z,98754.46
2023-03-15T03:41:01.957Z,98754.52
2023-03-15T03:43:31.719Z,98760.73
2023-03-15T03:46:00.405Z,98759.93
2023-03-15T03:48:29.407Z,98761.35
2023-03-15T03:50:57.784Z,98764.14
2023-03-15T03:53:26.528Z,98764.54
2023-03-15T03:55:55.110Z,98760.44
2023-03-15T03:58:24.135Z,98757.58
2023-03-15T04:00:57.271Z,98761.42
2023-03-15T04:03:27.494Z,98759.05
2023-03-15T04:06:05.954Z,98757.70
2023-03-15T04:08:38.577Z,98760.00
2023-03-15T04:11:08.561Z,98757.79
2023-03-15T04:13:40.903Z,98756.97
2023-03-15T04:16:09.153Z,98758.04
2023-03-15T04:18:56.523Z,98754.73
2023-03-15T04:21:25.112Z,98749.38
2023-03-15T04:24:00.705Z,98747.27
2023-03-15T04:26:46.426Z,98753.12
2023-03-15T04:29:33.754Z,98757.95
2023-03-15T04:32:17.889Z,98756.86
2023-03-15T04:35:02.220Z,98757.15
2023-03-15T04:37:49.051Z,98759.87
2023-03-15T04:40:43.040Z,98761.95
2023-03-15T04:43:40.692Z,98766.47
2023-03-15T04:46:47.261Z,98773.94
2023-03-15T04:49:38.996Z,98775.48
2023-03-15T04:52:25.368Z,98772.20
2023-03-15T04:55:22.663Z,98773.38
2023-03-15T04:58:10.752Z,98774.88
2023-03-15T05:01:03.745Z,98779.48
2023-03-15T05:03:51.262Z,98779.87
2023-03-15T05:06:51.441Z,98784.16
2023-03-15T05:09:55.274Z,98784.61
2023-03-15T05:12:40.089Z,98789.05
2023-03-15T05:15:33.043Z,98792.45
2023-03-15T05:18:19.196Z,98794.79
2023-03-15T05:21:07.792Z,98803.59
2023-03-15T05:24:14.575Z,98812.74
2023-03-15T05:27:22.304Z,98813.46
2023-03-15T05:30:34.174Z,98818.42
2023-03-15T05:33:33.136Z,98824.24
2023-03-15T05:36:22.759Z,98826.70
2023-03-15T05:39:16.971Z,98825.20
2023-03-15T05:42:11.533Z,98818.40
2023-03-15T05:44:42.300Z,98813.34
2023-03-15T05:47:40.968Z,98812.36
2023-03-15T05:50:32.157Z,98812.48
2023-03-15T05:53:36.336Z,98815.49
2023-03-15T05:56:23.247Z,98815.16
2023-03-15T05:59:09.885Z,98812.98
2023-03-15T06:01:52.947Z,98809.25
2023-03-15T06:04:25.769Z,98800.90
2023-03-15T06:06:56.105Z,98805.88
2023-03-15T06:09:27.865Z,98807.12
2023-03-15T06:11:59.226Z,98807.07
2023-03-15T06:14:27.454Z,98805.33
2023-03-15T06:17:01.974Z,98800.39
2023-03-15T06:19:32.191Z,98800.81
2023-03-15T06:22:01.522Z,98809.89
2023-03-15T06:24:34.420Z,98808.70
2023-03-15T06:27:03.333Z,98808.02
2023-03-15T06:29:31.684Z,98807.38
2023-03-15T06:32:01.078Z,98804.00
2023-03-15T06:34:30.704Z,98804.70
2023-03-15T06:37:01.205Z,98803.40
2023-03-15T06:39:34.445Z,98803.39
2023-03-15T06:42:04.806Z,98804.37
2023-03-15T06:44:36.848Z,98805.91
2023-03-15T06:47:06.633Z,98799.11
2023-03-15T06:49:35.646Z,98793.56
2023-03-15T06:52:04.670Z,98786.96
2023-03-15T06:54:33.292Z,98782.06
2023-03-15T06:57:02.082Z,98781.20
2023-03-15T06:59:30.467Z,98787.70
2023-03-15T07:01:59.382Z,98793.85
2023-03-15T07:04:27.605Z,98792.33
2023-03-15T07:06:55.884Z,98792.69
2023-03-15T07:09:24.368Z,98793.82
2023-03-15T07:11:53.214Z,98793.53
2023-03-15T07:14:22.352Z,98792.64
2023-03-15T07:16:50.782Z,98793.93
2023-03-15T07:19:18.783Z,98788.00
2023-03-15T07:21:48.338Z,98778.09
2023-03-15T07:24:17.086Z,98779.95
2023-03-15T07:26:45.109Z,98778.66
2023-03-15T07:29:13.107Z,98786.84
2023-03-15T07:31:42.294Z,98786.28
2023-03-15T07:34:10.294Z,98790.02
2023-03-15T07:36:38.993Z,98792.47
2023-03-15T07:39:07.102Z,98794.51
2023-03-15T07:41:38.058Z,98796.58
2023-03-15T07:44:09.319Z,98795.78
2023-03-15T07:46:37.366Z,98794.89
2023-03-15T07:49:05.407Z,98801.10
2023-03-15T07:51:33.940Z,98800.81
2023-03-15T07:54:11.254Z,98796.81
2023-03-15T07:56:40.285Z,98795.29
2023-03-15T07:59:08.594Z,98796.77
2023-03-15T08:01:37.319Z,98795.83
2023-03-15T08:04:05.884Z,98797.54
2023-03-15T08:06:37.011Z,98799.70
2023-03-15T08:09:06.898Z,98794.86
2023-03-15T08:14:10.981Z,98796.30
2023-03-15T08:16:39.017Z,98799.27
2023-03-15T08:19:07.053Z,98797.39
2023-03-15T08:21:35.720Z,98798.98
2023-03-15T08:24:04.294Z,98794.05
2023-03-15T08:26:33.120Z,98787.93
2023-03-15T08:29:01.281Z,98784.89
2023-03-15T08:31:29.728Z,98781.72
2023-03-15T08:33:57.796Z,98780.27
2023-03-15T08:36:26.680Z,98781.95
2023-03-15T08:38:56.327Z,98780.95
2023-03-15T08:41:25.341Z,98781.94
2023-03-15T08:43:53.329Z,98777.48
2023-03-15T08:46:22.349Z,98779.13
2023-03-15T08:48:50.821Z,98779.00
2023-03-15T08:51:21.981Z,98776.10
2023-03-15T08:53:51.551Z,98774.02
2023-03-15T08:56:19.865Z,98766.54
2023-03-15T08:58:48.975Z,98762.73
2023-03-15T09:01:16.929Z,98764.05
2023-03-15T09:03:45.086Z,98756.27
2023-03-15T09:06:13.798Z,98754.76
2023-03-15T09:08:42.097Z,98756.64
2023-03-15T09:11:10.659Z,98760.10
2023-03-15T09:13:38.970Z,98766.65
2023-03-15T09:16:08.033Z,98758.70
2023-03-15T09:18:36.273Z,98755.60
2023-03-15T09:21:05.556Z,98756.14
2023-03-15T09:23:37.577Z,98759.95
2023-03-15T09:26:05.698Z,98757.17
2023-03-15T09:28:34.391Z,98759.57
2023-03-15T09:31:06.944Z,98760.27
2023-03-15T09:33:35.182Z,98758.79
2023-03-15T09:36:06.728Z,98755.91
2023-03-15T09:38:40.319Z,98751.78
2023-03-15T09:41:32.857Z,98747.88
2023-03-15T09:44:07.373Z,98744.11
2023-03-15T09:47:01.953Z,98736.27
2023-03-15T09:49:38.963Z,98734.10
2023-03-15T09:52:19.680Z,98733.66
2023-03-15T09:54:50.839Z,98733.96
2023-03-15T09:57:21.721Z,98735.45
2023-03-15T09:59:51.462Z,98741.15
2023-03-15T10:02:21.881Z,98742.96
2023-03-15T10:04:51.190Z,98740.95
2023-03-15T10:07:21.308Z,98738.30
2023-03-15T10:09:51.096Z,98732.41
2023-03-15T10:12:24.755Z,98730.89
2023-03-15T10:14:58.117Z,98734.77
2023-03-15T10:17:50.926Z,98732.20
2023-03-15T10:20:20.383Z,98727.98
2023-03-15T10:22:59.143Z,98730.02
2023-03-15T10:25:28.277Z,98732.84
2023-03-15T10:28:04.282Z,98731.50
2023-03-15T10:30:33.483Z,98730.81
2023-03-15T10:33:21.669Z,98730.51
2023-03-15T10:35:50.996Z,98730.13
2023-03-15T10:38:25.634Z,98728.84
2023-03-15T10:40:54.761Z,98727.59
2023-03-15T10:43:23.814Z,98723.41
2023-03-15T10:46:01.988Z,98725.77
2023-03-15T10:48:39.824Z,98725.98
2023-03-15T10:51:35.544Z,98729.15
2023-03-15T10:54:18.955Z,98732.98
2023-03-15T10:57:00.836Z,98735.14
2023-03-15T10:59:30.634Z,98729.34
2023-03-15T11:02:25.040Z,98729.80
2023-03-15T11:05:01.310Z,98728.02
2023-03-15T11:07:35.650Z,98722.98
2023-03-15T11:10:04.303Z,98720.11
2023-03-15T11:12:35.004Z,98715.05
2023-03-15T11:15:04.880Z,98710.67
2023-03-15T11:17:34.679Z,98711.83
2023-03-15T11:20:13.148Z,98711.72
2023-03-15T11:22:46.423Z,98708.23
2023-03-15T11:25:15.358Z,98699.92
2023-03-15T11:27:43.696Z,98699.84
2023-03-15T11:30:15.459Z,98700.83
2023-03-15T11:32:44.228Z,98704.09
2023-03-15T11:35:25.956Z,98706.01
2023-03-15T11:37:58.508Z,98705.25
2023-03-15T11:40:34.639Z,98707.71
2023-03-15T11:43:02.979Z,98705.34
2023-03-15T11:45:41.772Z,98705.88
2023-03-15T11:48:34.438Z,98705.70
2023-03-15T11:51:02.469Z,98701.34
2023-03-15T11:53:34.608Z,98704.80
2023-03-15T11:56:32.179Z,98701.94
2023-03-15T11:59:04.534Z,98705.39
2023-03-15T12:01:32.561Z,98710.49
2023-03-15T12:04:36.461Z,98705.29
2023-03-15T12:07:12.971Z,98707.85
2023-03-15T12:09:47.471Z,98706.53
2023-03-15T12:12:25.600Z,98701.85
2023-03-15T12:15:13.163Z,98703.66
2023-03-15T12:17:44.168Z,98697.99
2023-03-15T12:20:13.417Z,98693.55
2023-03-15T12:22:43.608Z,98691.42
2023-03-15T12:25:12.091Z,98686.80
2023-03-15T12:27:49.268Z,98684.16
2023-03-15T12:30:37.830Z,98687.35
2023-03-15T12:33:12.351Z,98691.30
2023-03-15T12:35:40.703Z,98688.63
2023-03-15T12:38:13.032Z,98694.47
2023-03-15T12:40:41.590Z,98695.48
2023-03-15T12:43:09.784Z,98693.13
2023-03-15T12:45:39.756Z,98694.18
2023-03-15T12:48:12.751Z,98692.39
2023-03-15T12:50:45.873Z,98690.81
2023-03-15T12:53:25.750Z,98687.98
2023-03-15T12:55:59.700Z,98692.48
2023-03-15T12:58:37.537Z,98692.64
2023-03-15T13:01:06.235Z,98692.13
2023-03-15T13:03:34.856Z,98686.48
2023-03-15T13:06:22.091Z,98682.95
2023-03-15T13:09:09.227Z,98685.61
2023-03-15T13:11:40.863Z,98682.74
2023-03-15T13:14:18.194Z,98683.30
2023-03-15T13:16:51.285Z,98683.23
2023-03-15T13:19:23.163Z,98679.73
2023-03-15T13:22:11.117Z,98680.04
2023-03-15T13:24:43.583Z,98684.64
2023-03-15T13:27:34.832Z,98686.84
2023-03-15T13:30:23.774Z,98689.77
2023-03-15T13:33:11.151Z,98689.91
2023-03-15T13:35:44.407Z,98689.33
2023-03-15T13:38:31.799Z,98691.86
2023-03-15T13:41:05.847Z,98698.21
2023-03-15T13:43:37.914Z,98693.64
2023-03-15T13:46:09.169Z,98697.59
2023-03-15T13:48:40.302Z,98699.77
2023-03-15T13:51:31.560Z,98696.91
2023-03-15T13:54:07.079Z,98693.48
2023-03-15T13:56:48.899Z,98693.50
2023-03-15T13:59:17.832Z,98691.08
2023-03-15T14:01:46.300Z,98690.06
2023-03-15T14:04:16.432Z,98687.89
2023-03-15T14:06:47.415Z,98687.65
2023-03-15T14:09:17.940Z,98687.30
2023-03-15T14:12:02.635Z,98683.53
2023-03-15T14:14:32.935Z,98679.38
2023-03-15T14:17:06.350Z,98679.05
2023-03-15T14:19:35.245Z,98679.95
2023-03-15T14:22:17.955Z,98674.29
2023-03-15T14:24:49.866Z,98667.83
2023-03-15T14:27:19.462Z,98666.05
2023-03-15T14:29:47.391Z,98661.85
2023-03-15T14:32:31.683Z,98661.30
2023-03-15T14:35:20.204Z,98664.55
2023-03-15T14:37:48.825Z,98666.38
2023-03-15T14:40:28.531Z,98661.77
2023-03-15T14:42:56.503Z,98664.52
2023-03-15T14:45:24.749Z,98667.09
2023-03-15T14:47:57.224Z,98669.83
2023-03-15T14:50:29.385Z,98668.77
2023-03-15T14:52:57.981Z,98669.23
2023-03-15T14:55:30.232Z,98665.21
2023-03-15T14:57:58.121Z,98663.11
2023-03-15T15:00:27.144Z,98659.98
2023-03-15T15:02:55.781Z,98666.09
2023-03-15T15:05:26.777Z,98668.36
2023-03-15T15:08:01.952Z,98664.58
2023-03-15T15:10:32.288Z,98667.90
2023-03-15T15:13:06.367Z,98668.70
2023-03-15T15:15:51.834Z,98672.45
2023-03-15T15:18:27.453Z,98669.83
2023-03-15T15:20:59.003Z,98677.08
2023-03-15T15:23:33.296Z,98685.95
2023-03-15T15:26:02.372Z,98689.47
2023-03-15T15:28:35.923Z,98687.41
2023-03-15T15:31:07.212Z,98684.50
2023-03-15T15:33:35.434Z,98684.55
2023-03-15T15:36:07.028Z,98684.11
2023-03-15T15:38:39.310Z,98686.73
2023-03-15T15:41:12.234Z,98685.95
2023-03-15T15:43:40.877Z,98686.66
2023-03-15T15:46:11.428Z,98684.27
2023-03-15T15:48:40.797Z,98687.71
2023-03-15T15:51:24.883Z,98690.73
2023-03-15T15:53:54.845Z,98684.18
2023-03-15T15:56:23.056Z,98682.80
2023-03-15T15:58:51.305Z,98687.71
2023-03-15T16:01:19.493Z,98686.90
2023-03-15T16:03:47.756Z,98688.55
2023-03-15T16:06:19.469Z,98692.76
2023-03-15T16:08:47.677Z,98699.88
2023-03-15T16:11:16.529Z,98704.77
2023-03-15T16:13:46.096Z,98705.59
2023-03-15T16:16:15.466Z,98705.10
2023-03-15T16:18:44.487Z,98710.68
2023-03-15T16:21:39.642Z,98708.27
2023-03-15T16:24:16.690Z,98711.52
2023-03-15T16:26:45.131Z,98708.42
2023-03-15T16:29:16.998Z,98712.80
2023-03-15T16:31:45.108Z,98708.85
2023-03-15T16:34:13.639Z,98711.09
2023-03-15T16:36:46.090Z,98707.83
2023-03-15T16:39:15.926Z,98714.05
2023-03-15T16:41:48.854Z,98720.33
2023-03-15T16:44:17.673Z,98720.95
2023-03-15T16:46:46.031Z,98721.08
2023-03-15T16:49:16.212Z,98725.70
2023-03-15T16:51:45.612Z,98726.02
2023-03-15T16:54:34.277Z,98727.65
2023-03-15T16:57:22.181Z,98727.90
2023-03-15T16:59:51.279Z,98728.53
2023-03-15T17:02:21.609Z,98725.29
2023-03-15T17:04:49.662Z,98723.44
2023-03-15T17:07:17.926Z,98726.65
2023-03-15T17:09:47.102Z,98725.35
2023-03-15T17:12:27.803Z,98724.16
2023-03-15T17:14:56.885Z,98725.80
2023-03-15T17:17:26.623Z,98724.16
2023-03-15T17:20:13.071Z,98723.55
2023-03-15T17:22:41.847Z,98726.45
2023-03-15T17:25:10.715Z,98730.70
2023-03-15T17:27:40.708Z,98724.36
2023-03-15T17:30:18.267Z,98720.73
2023-03-15T17:32:46.957Z,98724.21
2023-03-15T17:35:15.942Z,98725.08
2023-03-15T17:37:47.632Z,98722.09
2023-03-15T17:40:21.440Z,98721.16
2023-03-15T17:42:49.556Z,98725.27
2023-03-15T17:45:20.836Z,98718.83
2023-03-15T17:47:49.284Z,98721.55
2023-03-15T17:50:20.282Z,98722.38
2023-03-15T17:53:00.123Z,98724.48
2023-03-15T17:55:28.498Z,98723.96
2023-03-15T17:57:56.460Z,98729.54
2023-03-15T18:00:25.197Z,98731.98
2023-03-15T18:02:56.045Z,98730.59
2023-03-15T18:05:25.378Z,98731.37
2023-03-15T18:08:00.145Z,98734.23
2023-03-15T18:10:31.771Z,98738.38
2023-03-15T18:13:00.219Z,98739.53
2023-03-15T18:15:28.232Z,98739.32
2023-03-15T18:17:57.334Z,98739.27
2023-03-15T18:20:26.138Z,98741.98
2023-03-15T18:22:57.696Z,98744.13
2023-03-15T18:25:26.537Z,98742.96
2023-03-15T18:27:54.459Z,98741.83
2023-03-15T18:30:23.677Z,98743.10
2023-03-15T18:32:52.717Z,98742.10
2023-03-15T18:35:27.775Z,98740.27
2023-03-15T18:37:57.524Z,98739.26
2023-03-15T18:40:29.469Z,98741.91
2023-03-15T18:42:58.712Z,98741.27
2023-03-15T18:45:29.620Z,98740.06
2023-03-15T18:47:59.989Z,98742.15
2023-03-15T18:50:29.473Z,98744.64
2023-03-15T18:52:57.472Z,98746.60
2023-03-15T18:55:26.094Z,98742.83
2023-03-15T18:57:55.338Z,98741.48
2023-03-15T19:00:26.011Z,98744.30
2023-03-15T19:02:55.566Z,98747.98
2023-03-15T19:05:24.363Z,98746.28
2023-03-15T19:07:52.933Z,98748.61
2023-03-15T19:10:21.522Z,98749.70
2023-03-15T19:12:49.774Z,98748.23
2023-03-15T19:15:19.761Z,98749.30
2023-03-15T19:17:48.325Z,98749.36
2023-03-15T19:20:22.231Z,98749.93
2023-03-15T19:22:51.238Z,98754.69
2023-03-15T19:25:19.281Z,98757.18
2023-03-15T19:27:47.794Z,98755.88
2023-03-15T19:30:18.212Z,98758.36
2023-03-15T19:32:48.142Z,98757.01
2023-03-15T19:35:17.755Z,98755.29
2023-03-15T19:37:45.923Z,98757.25
2023-03-15T19:40:20.122Z,98756.77
2023-03-15T19:42:48.920Z,98759.88
2023-03-15T19:45:17.060Z,98758.15
2023-03-15T19:47:47.188Z,98759.71
2023-03-15T19:50:15.329Z,98755.59
2023-03-15T19:52:46.236Z,98753.52
2023-03-15T19:55:14.938Z,98756.48
2023-03-15T19:57:43.345Z,98759.80
2023-03-15T20:00:14.523Z,98757.05
2023-03-15T20:02:43.510Z,98754.80
2023-03-15T20:05:17.361Z,98750.33
2023-03-15T20:07:47.479Z,98753.63
2023-03-15T20:10:15.535Z,98755.38
2023-03-15T20:12:45.503Z,98756.10
2023-03-15T20:15:15.445Z,98754.73
2023-03-15T20:17:43.806Z,98750.75
2023-03-15T20:20:14.954Z,98752.17
2023-03-15T20:22:44.561Z,98750.98
2023-03-15T20:25:16.349Z,98751.86
2023-03-15T20:27:44.766Z,98748.42
2023-03-15T20:30:13.082Z,98742.56
2023-03-15T20:32:44.154Z,98740.77
2023-03-15T20:35:12.998Z,98738.50
2023-03-15T20:37:42.394Z,98736.42
2023-03-15T20:40:13.235Z,98730.06
2023-03-15T20:42:47.527Z,98733.20
2023-03-15T20:45:16.910Z,98732.15
2023-03-15T20:47:44.852Z,98737.69
2023-03-15T20:50:13.565Z,98735.29
2023-03-15T20:52:43.532Z,98738.45
2023-03-15T20:55:11.757Z,98738.85
2023-03-15T20:57:43.547Z,98739.56
2023-03-15T21:00:12.923Z,98740.11
2023-03-15T21:02:41.740Z,98733.04
2023-03-15T21:05:10.010Z,98732.35
2023-03-15T21:07:39.626Z,98731.15
2023-03-15T21:10:07.991Z,98726.10
2023-03-15T21:12:37.840Z,98724.39
2023-03-15T21:15:06.555Z,98725.98
2023-03-15T21:17:34.958Z,98729.85
2023-03-15T21:20:06.286Z,98731.42
2023-03-15T21:22:37.847Z,98734.23
2023-03-15T21:25:06.111Z,98733.55
2023-03-15T21:27:35.291Z,98730.80
2023-03-15T21:30:03.718Z,98733.27
2023-03-15T21:32:31.990Z,98728.64
2023-03-15T21:35:05.172Z,98728.50
2023-03-15T21:37:35.338Z,98732.02
2023-03-15T21:40:05.234Z,98733.13
2023-03-15T21:42:34.452Z,98734.91
2023-03-15T21:45:02.442Z,98735.14
2023-03-15T21:47:31.977Z,98734.83
2023-03-15T21:50:00.627Z,98735.40
2023-03-15T21:52:28.625Z,98739.58
2023-03-15T21:54:58.430Z,98737.91
2023-03-15T21:57:26.683Z,98739.13
2023-03-15T21:59:55.516Z,98741.55
2023-03-15T22:02:23.507Z,98743.05
2023-03-15T22:04:52.005Z,98744.06
2023-03-15T22:07:20.292Z,98745.38
2023-03-15T22:09:48.325Z,98744.13
2023-03-15T22:12:18.653Z,98740.09
2023-03-15T22:14:56.861Z,98741.45
2023-03-15T22:17:32.811Z,98735.86
2023-03-15T22:20:02.079Z,98731.69
2023-03-15T22:22:30.524Z,98731.69
2023-03-15T22:24:58.481Z,98733.10
2023-03-15T22:27:26.440Z,98732.81
2023-03-15T22:29:54.367Z,98738.58
2023-03-15T22:32:26.628Z,98737.95
2023-03-15T22:34:54.543Z,98737.13
2023-03-15T22:37:22.414Z,98733.70
2023-03-15T22:39:52.385Z,98730.49
2023-03-15T22:42:20.340Z,98732.80
2023-03-15T22:44:50.760Z,98736.05
2023-03-15T22:47:19.037Z,98739.98
2023-03-15T22:49:47.556Z,98744.40
2023-03-15T22:52:15.577Z,98739.80
2023-03-15T22:54:43.774Z,98733.66
2023-03-15T22:57:11.700Z,98733.05
2023-03-15T22:59:39.624Z,98736.80
2023-03-15T23:02:07.828Z,98743.12
2023-03-15T23:04:37.447Z,98745.59
2023-03-15T23:07:05.484Z,98744.61
2023-03-15T23:09:36.174Z,98743.45
2023-03-15T23:12:06.025Z,98742.96
2023-03-15T23:14:34.059Z,98742.33
2023-03-15T23:17:03.929Z,98743.52
2023-03-15T23:19:34.252Z,98740.91
2023-03-15T23:22:02.475Z,98742.37
2023-03-15T23:24:34.104Z,98742.83
2023-03-15T23:27:03.664Z,98739.79
2023-03-15T23:29:34.168Z,98739.36
2023-03-15T23:32:09.831Z,98738.58
2023-03-15T23:34:43.135Z,98734.00
2023-03-15T23:37:11.504Z,98728.66
2023-03-15T23:39:39.383Z,98729.06
2023-03-15T23:42:07.795Z,98726.25
2023-03-15T23:44:37.393Z,98720.09
2023-03-15T23:47:06.698Z,98715.55
2023-03-15T23:49:35.888Z,98722.77
2023-03-15T23:52:06.788Z,98719.83
2023-03-15T23:54:40.010Z,98718.63
2023-03-15T23:57:09.937Z,98717.77
2023-03-15T23:59:38.038Z,98712.88
